Darstellungsparameter: Aktuell verwendete Einstellungen:
Skalierung der Graphiken ... ?
xyx+y,   Skalierungsfaktor:      Skalierung: Modus: x, Faktor: 1
Darstellungszeitraum ... ?
Vom - - bis: - -   Zeitraum: 08.03.2021 - 08.03.2021
Min/Max/Avg-Anzeige ... ?
Zeige MMA aktuell
Zeige MMA Monat
Zeige MMA alles
Zeige --A aktuell
Zeige --A Monat
Zeige --A alles
Keine MMA-Anzeige
MMA:
Average (ber die Originaldaten)
MMA-Basis: 08.03.2021 - 08.03.2021
Quicknavigation für Darstellung... ?
Tage:      1T, 2T, 3T, 5T -1T -2T -3T -5T +1T +2T +3T +5T
Wochen: 1W, 2W, 3W -1W -2W -3W +1W +2W +3W
Monate: 1M, 3M, 6M -1M -3M -6M +1M +3M +6M
Jahre:    1J, 3J, 5J, 10J -1J -3J -5J -10J +1J +3J +5J +10J
Nutze für die Darstellung ... ?
Originaldaten oder Mittelwerte auf ...
Stundenbasis Tagesbasis Wochenbasis
Monatsbasis Jahresbasis      Datenbasis: Original-Daten
Darstellen als:
Statistik (Auto) Statistik J:M      Darstellung:

Der gewünschte Datumsbereich war nicht gültig/verfügbar und wurde korrigiert....
Das angegebene Enddatum (07.09.2025 23:59:59) liegt in der Zukunft.
Das angegebene Startdatum (07.09.2025 00:00:00) liegt in der Zukunft.


Zur Graphik,    zurück zur Übersicht aller Sensoren.
 
Tabellarische Datenbersicht: ?
 
Sensor: Nr:Datum:Temp:Abs-Feuchte:Windchill:Wind:
Aussen-T/F 1 08-03-2021 01:00:00 -2.3 C 3.67 g/m*3 -2.3 C 0 km/h
2 08-03-2021 01:05:00 -2.3 C 3.71 g/m*3 -2.3 C 0 km/h
3 08-03-2021 01:10:00 -2.3 C 3.71 g/m*3 -2.3 C 0 km/h
4 08-03-2021 01:15:00 -2.4 C 3.69 g/m*3 -2.4 C 0 km/h
5 08-03-2021 01:20:00 -2.5 C 3.66 g/m*3 -2.5 C 0 km/h
6 08-03-2021 01:25:00 -2.5 C 3.66 g/m*3 -2.5 C 0 km/h
7 08-03-2021 01:30:00 -2.6 C 3.64 g/m*3 -2.6 C 0 km/h
8 08-03-2021 01:35:00 -2.6 C 3.64 g/m*3 -2.6 C 0 km/h
9 08-03-2021 01:40:00 -2.7 C 3.61 g/m*3 -2.7 C 0 km/h
10 08-03-2021 01:45:00 -2.7 C 3.61 g/m*3 -2.7 C 0 km/h
11 08-03-2021 01:50:00 -2.7 C 3.61 g/m*3 -2.7 C 0 km/h
12 08-03-2021 01:55:00 -2.8 C 3.59 g/m*3 -2.8 C 0 km/h
13 08-03-2021 02:00:00 -2.8 C 3.59 g/m*3 -2.8 C 0 km/h
14 08-03-2021 02:05:00 -2.8 C 3.63 g/m*3 -2.8 C 0 km/h
15 08-03-2021 02:10:00 -2.8 C 3.63 g/m*3 -2.8 C 0 km/h
16 08-03-2021 02:15:00 -2.9 C 3.6 g/m*3 -2.9 C 0 km/h
17 08-03-2021 02:20:00 -2.9 C 3.6 g/m*3 -2.9 C 0 km/h
18 08-03-2021 02:25:00 -2.9 C 3.6 g/m*3 -2.9 C 0 km/h
19 08-03-2021 02:30:00 -2.9 C 3.6 g/m*3 -2.9 C 0 km/h
20 08-03-2021 02:35:00 -2.9 C 3.6 g/m*3 -2.9 C 0 km/h
21 08-03-2021 02:40:00 -2.9 C 3.6 g/m*3 -2.9 C 0 km/h
22 08-03-2021 02:45:00 -2.9 C 3.6 g/m*3 -2.9 C 0 km/h
23 08-03-2021 02:50:00 -3 C 3.57 g/m*3 -3 C 0 km/h
24 08-03-2021 02:55:00 -3 C 3.57 g/m*3 -3 C 0 km/h
25 08-03-2021 03:00:00 -3.1 C 3.55 g/m*3 -3.1 C 0 km/h
Sensor: Nr:Datum:Temp:Abs-Feuchte:Windchill:Wind:
Aussen-T/F 26 08-03-2021 03:05:00 -3.1 C 3.55 g/m*3 -3.1 C 0 km/h
27 08-03-2021 03:10:00 -3.1 C 3.59 g/m*3 -3.1 C 0 km/h
28 08-03-2021 03:15:00 -3 C 3.61 g/m*3 -3 C 0 km/h
29 08-03-2021 03:20:00 -3 C 3.61 g/m*3 -3 C 0 km/h
30 08-03-2021 03:25:00 -3.1 C 3.59 g/m*3 -3.1 C 0 km/h
31 08-03-2021 03:30:00 -3.1 C 3.59 g/m*3 -3.1 C 0 km/h
32 08-03-2021 03:35:00 -3.1 C 3.59 g/m*3 -3.1 C 0 km/h
33 08-03-2021 03:40:00 -3.2 C 3.52 g/m*3 -3.2 C 0 km/h
34 08-03-2021 03:45:00 -3.2 C 3.52 g/m*3 -3.2 C 0 km/h
35 08-03-2021 03:50:00 -3.2 C 3.56 g/m*3 -3.2 C 0 km/h
36 08-03-2021 03:55:00 -3.2 C 3.56 g/m*3 -3.2 C 0 km/h
37 08-03-2021 04:00:00 -3.1 C 3.59 g/m*3 -3.1 C 0 km/h
38 08-03-2021 04:05:00 -3.1 C 3.59 g/m*3 -3.1 C 0 km/h
39 08-03-2021 04:10:00 -3.1 C 3.59 g/m*3 -3.1 C 0 km/h
40 08-03-2021 04:15:00 -3.1 C 3.59 g/m*3 -3.1 C 0 km/h
41 08-03-2021 04:20:00 -3.2 C 3.56 g/m*3 -3.2 C 3.2 km/h
42 08-03-2021 04:25:00 -3.1 C 3.59 g/m*3 -3.1 C 3.2 km/h
43 08-03-2021 04:30:00 -3 C 3.65 g/m*3 -3 C 1.6 km/h
44 08-03-2021 04:35:00 -2.9 C 3.68 g/m*3 -2.9 C 0 km/h
45 08-03-2021 04:40:00 -2.8 C 3.71 g/m*3 -2.8 C 0 km/h
46 08-03-2021 04:45:00 -2.8 C 3.71 g/m*3 -2.8 C 0 km/h
47 08-03-2021 04:50:00 -2.8 C 3.67 g/m*3 -2.8 C 0 km/h
48 08-03-2021 04:55:00 -2.8 C 3.67 g/m*3 -2.8 C 0 km/h
49 08-03-2021 05:00:00 -2.8 C 3.67 g/m*3 -2.8 C 0 km/h
50 08-03-2021 05:05:00 -2.7 C 3.73 g/m*3 -2.7 C 1.6 km/h
Sensor: Nr:Datum:Temp:Abs-Feuchte:Windchill:Wind:
Aussen-T/F 51 08-03-2021 05:10:00 -2.7 C 3.73 g/m*3 -2.7 C 0 km/h
52 08-03-2021 05:15:00 -2.7 C 3.73 g/m*3 -2.7 C 0 km/h
53 08-03-2021 05:20:00 -2.7 C 3.73 g/m*3 -2.7 C 0 km/h
54 08-03-2021 05:25:00 -2.8 C 3.67 g/m*3 -2.8 C 0 km/h
55 08-03-2021 05:30:00 -2.8 C 3.67 g/m*3 -2.8 C 0 km/h
56 08-03-2021 05:35:00 -2.9 C 3.64 g/m*3 -2.9 C 0 km/h
57 08-03-2021 05:40:00 -3.1 C 3.59 g/m*3 -3.1 C 0 km/h
58 08-03-2021 05:45:00 -3.2 C 3.56 g/m*3 -3.2 C 0 km/h
59 08-03-2021 05:50:00 -3.3 C 3.54 g/m*3 -3.3 C 1.6 km/h
60 08-03-2021 05:55:00 -3.3 C 3.54 g/m*3 -3.3 C 0 km/h
61 08-03-2021 06:00:00 -3.4 C 3.51 g/m*3 -3.4 C 0 km/h
62 08-03-2021 06:05:00 -3.4 C 3.51 g/m*3 -3.4 C 0 km/h
63 08-03-2021 06:10:00 -3.4 C 3.51 g/m*3 -3.4 C 0 km/h
64 08-03-2021 06:15:00 -3.4 C 3.51 g/m*3 -3.4 C 0 km/h
65 08-03-2021 06:20:00 -3.4 C 3.51 g/m*3 -3.4 C 0 km/h
66 08-03-2021 06:25:00 -3.5 C 3.49 g/m*3 -3.5 C 1.6 km/h
67 08-03-2021 06:30:00 -3.4 C 3.51 g/m*3 -3.4 C 0 km/h
68 08-03-2021 06:35:00 -3.4 C 3.55 g/m*3 -3.4 C 0 km/h
69 08-03-2021 06:40:00 -3.5 C 3.49 g/m*3 -3.5 C 0 km/h
70 08-03-2021 06:45:00 -3.6 C 3.46 g/m*3 -3.6 C 1.6 km/h
71 08-03-2021 06:50:00 -3.6 C 3.5 g/m*3 -3.6 C 0 km/h
72 08-03-2021 06:55:00 -3.6 C 3.5 g/m*3 -3.6 C 0 km/h
73 08-03-2021 07:00:00 -3.7 C 3.48 g/m*3 -3.7 C 0 km/h
74 08-03-2021 07:05:00 -3.6 C 3.5 g/m*3 -3.6 C 0 km/h
75 08-03-2021 07:10:00 -3.7 C 3.48 g/m*3 -3.7 C 0 km/h
Sensor: Nr:Datum:Temp:Abs-Feuchte:Windchill:Wind:
Aussen-T/F 76 08-03-2021 07:15:00 -3.7 C 3.48 g/m*3 -3.7 C 0 km/h
77 08-03-2021 07:20:00 -3.7 C 3.48 g/m*3 -3.7 C 3.2 km/h
78 08-03-2021 07:25:00 -3.6 C 3.5 g/m*3 -3.6 C 3.2 km/h
79 08-03-2021 07:30:00 -3.6 C 3.5 g/m*3 -3.6 C 0 km/h
80 08-03-2021 07:35:00 -3.6 C 3.5 g/m*3 -3.6 C 0 km/h
81 08-03-2021 07:40:00 -3.5 C 3.53 g/m*3 -3.5 C 0 km/h
82 08-03-2021 07:45:00 -3.4 C 3.55 g/m*3 -3.4 C 0 km/h
83 08-03-2021 07:50:00 -3.4 C 3.55 g/m*3 -3.4 C 0 km/h
84 08-03-2021 07:55:00 -3.3 C 3.58 g/m*3 -3.3 C 0 km/h
85 08-03-2021 08:00:00 -3.2 C 3.64 g/m*3 -3.2 C 0 km/h
86 08-03-2021 08:05:00 -3.2 C 3.64 g/m*3 -3.2 C 0 km/h
87 08-03-2021 08:10:00 -3.1 C 3.67 g/m*3 -3.1 C 0 km/h
88 08-03-2021 08:15:00 -2.9 C 3.72 g/m*3 -2.9 C 0 km/h
89 08-03-2021 08:20:00 -2.8 C 3.75 g/m*3 -2.8 C 0 km/h
90 08-03-2021 08:25:00 -2.6 C 3.8 g/m*3 -2.6 C 1.6 km/h
91 08-03-2021 08:30:00 -2.3 C 3.88 g/m*3 -2.3 C 1.6 km/h
92 08-03-2021 08:35:00 -2.1 C 3.93 g/m*3 -2.1 C 1.6 km/h
93 08-03-2021 08:40:00 -1.9 C 3.99 g/m*3 -1.9 C 0 km/h
94 08-03-2021 08:45:00 -1.8 C 4.02 g/m*3 -1.8 C 3.2 km/h
95 08-03-2021 08:50:00 -1.7 C 4.05 g/m*3 -1.7 C 3.2 km/h
96 08-03-2021 08:55:00 -1.6 C 4.03 g/m*3 -1.6 C 1.6 km/h
97 08-03-2021 09:00:00 -1.4 C 4.09 g/m*3 -1.4 C 3.2 km/h
98 08-03-2021 09:05:00 -1.3 C 4.12 g/m*3 -1.3 C 3.2 km/h
99 08-03-2021 09:10:00 -1.2 C 4.1 g/m*3 -1.2 C 3.2 km/h
100 08-03-2021 09:15:00 -1 C 4.16 g/m*3 -1 C 3.2 km/h
Sensor: Nr:Datum:Temp:Abs-Feuchte:Windchill:Wind:
Aussen-T/F 101 08-03-2021 09:20:00 -0.9 C 4.19 g/m*3 -0.9 C 1.6 km/h
102 08-03-2021 09:25:00 -0.8 C 4.22 g/m*3 -0.8 C 3.2 km/h
103 08-03-2021 09:30:00 -0.7 C 4.2 g/m*3 -0.7 C 1.6 km/h
104 08-03-2021 09:35:00 -0.5 C 4.26 g/m*3 -0.5 C 0 km/h
105 08-03-2021 09:40:00 -0.4 C 4.29 g/m*3 -0.4 C 0 km/h
106 08-03-2021 09:45:00 -0.2 C 4.35 g/m*3 -0.2 C 0 km/h
107 08-03-2021 09:50:00 0 C 4.36 g/m*3 0 C 0 km/h
108 08-03-2021 09:55:00 0.1 C 4.39 g/m*3 0.1 C 0 km/h
109 08-03-2021 10:00:00 0.3 C 4.45 g/m*3 0.3 C 0 km/h
110 08-03-2021 10:05:00 0.4 C 4.43 g/m*3 0.4 C 0 km/h
111 08-03-2021 10:10:00 0.7 C 4.53 g/m*3 0.7 C 0 km/h
112 08-03-2021 10:15:00 0.8 C 4.51 g/m*3 0.8 C 0 km/h
113 08-03-2021 10:20:00 1 C 4.57 g/m*3 1 C 0 km/h
114 08-03-2021 10:25:00 1.2 C 4.58 g/m*3 1.2 C 0 km/h
115 08-03-2021 10:30:00 1.3 C 4.61 g/m*3 1.3 C 0 km/h
116 08-03-2021 10:35:00 1.6 C 4.65 g/m*3 1.6 C 0 km/h
117 08-03-2021 10:40:00 1.7 C 4.63 g/m*3 1.7 C 0 km/h
118 08-03-2021 10:45:00 1.9 C 4.69 g/m*3 1.9 C 0 km/h
119 08-03-2021 10:50:00 2.1 C 4.7 g/m*3 2.1 C 3.2 km/h
120 08-03-2021 10:55:00 2.3 C 4.76 g/m*3 2.3 C 1.6 km/h
121 08-03-2021 11:00:00 2.6 C 4.86 g/m*3 2.6 C 0 km/h
122 08-03-2021 11:05:00 2.8 C 4.87 g/m*3 2.8 C 3.2 km/h
123 08-03-2021 11:10:00 2.9 C 4.84 g/m*3 2.9 C 3.2 km/h
124 08-03-2021 11:15:00 3.1 C 4.85 g/m*3 3.1 C 3.2 km/h
125 08-03-2021 11:20:00 3.2 C 4.88 g/m*3 3.2 C 1.6 km/h
Sensor: Nr:Datum:Temp:Abs-Feuchte:Windchill:Wind:
Aussen-T/F 126 08-03-2021 11:25:00 3.4 C 5.01 g/m*3 3.4 C 1.6 km/h

Legende:
   Min
   Max


Maximal/Minimal-Werte vom 08.03.2021 - 08.03.2021

Sensor Min Max Avg
Temp
(Aussen-T/F)
-3.7 °C
08-03-2021  07:00:00
3.4 °C
08-03-2021  11:25:00
-2.08 °C
Abs-Feuchte
(Aussen-T/F)
3.46 g/m*3
08-03-2021  06:45:00
5.01 g/m*3
08-03-2021  11:25:00
3.8 g/m*3
Windchill
(Aussen-T/F)
-3.7 C
08-03-2021  07:00:00
3.4 C
08-03-2021  11:25:00
-2.06 C

Die Daten stammen von einer Davis Vantage Pro 2 Wetter-Station und werden unter Linux mit der Software wview2wettercgi und aufbereitet. Alle Angaben erfolgen ohne Gewähr für ihre Vollständigkeit oder Richtigkeit.
Kontakt: Rainer Krienke krienke@uni-koblenz.de . Meine Webseiten an der Uni Koblenz oder privat.
Version: $Revision: 0.78 $